createdAt,value
2023-04-12T00:01:10.710Z,3.40
2023-04-12T00:03:56.427Z,3.10
2023-04-12T00:06:42.528Z,3.30
2023-04-12T00:09:27.966Z,3.07
2023-04-12T00:12:13.048Z,3.17
2023-04-12T00:14:58.653Z,3.40
2023-04-12T00:17:44.643Z,3.50
2023-04-12T00:20:30.054Z,3.50
2023-04-12T00:23:15.674Z,3.67
2023-04-12T00:26:01.731Z,3.07
2023-04-12T00:28:47.214Z,3.00
2023-04-12T00:31:32.727Z,2.83
2023-04-12T00:34:20.712Z,3.10
2023-04-12T00:37:06.497Z,2.87
2023-04-12T00:39:51.989Z,2.70
2023-04-12T00:42:37.752Z,2.83
2023-04-12T00:45:23.308Z,3.33
2023-04-12T00:48:08.833Z,2.90
2023-04-12T00:50:54.378Z,2.70
2023-04-12T00:53:40.489Z,2.50
2023-04-12T00:56:26.170Z,2.70
2023-04-12T00:59:12.220Z,3.00
2023-04-12T01:01:59.568Z,2.70
2023-04-12T01:04:45.990Z,2.60
2023-04-12T01:07:45.886Z,2.80
2023-04-12T01:10:46.316Z,2.83
2023-04-12T01:13:45.919Z,3.00
2023-04-12T01:16:40.714Z,3.07
2023-04-12T01:19:40.004Z,3.40
2023-04-12T01:22:45.325Z,2.90
2023-04-12T01:25:40.560Z,3.40
2023-04-12T01:28:41.283Z,3.00
2023-04-12T01:31:29.719Z,3.17
2023-04-12T01:34:16.704Z,2.90
2023-04-12T01:37:06.628Z,2.80
2023-04-12T01:39:52.220Z,3.00
2023-04-12T01:42:37.784Z,2.80
2023-04-12T01:45:23.355Z,3.10
2023-04-12T01:48:10.322Z,3.03
2023-04-12T01:51:27.512Z,3.00
2023-04-12T01:54:22.604Z,2.70
2023-04-12T01:57:09.856Z,2.67
2023-04-12T01:59:58.621Z,2.60
2023-04-12T02:02:44.336Z,3.00
2023-04-12T02:05:29.900Z,3.20
2023-04-12T02:08:15.250Z,3.10
2023-04-12T02:11:00.678Z,3.13
2023-04-12T02:13:46.003Z,3.07
2023-04-12T02:16:31.508Z,2.63
2023-04-12T02:19:17.011Z,2.87
2023-04-12T02:22:02.274Z,2.60
2023-04-12T02:24:48.267Z,2.57
2023-04-12T02:27:33.774Z,2.50
2023-04-12T02:30:19.978Z,2.83
2023-04-12T02:33:10.098Z,2.87
2023-04-12T02:35:55.817Z,2.80
2023-04-12T02:38:41.210Z,2.57
2023-04-12T02:41:26.945Z,2.83
2023-04-12T02:44:12.250Z,3.03
2023-04-12T02:47:02.697Z,2.70
2023-04-12T02:49:50.114Z,2.73
2023-04-12T02:52:37.188Z,2.90
2023-04-12T02:55:25.968Z,2.80
2023-04-12T02:58:11.649Z,2.83
2023-04-12T03:01:03.283Z,2.80
2023-04-12T03:03:54.241Z,2.90
2023-04-12T03:06:54.709Z,3.10
2023-04-12T03:09:52.541Z,3.30
2023-04-12T03:12:40.217Z,3.20
2023-04-12T03:15:39.752Z,3.00
2023-04-12T03:18:25.622Z,3.50
2023-04-12T03:21:11.824Z,3.00
2023-04-12T03:23:59.769Z,2.80
2023-04-12T03:26:45.334Z,2.50
2023-04-12T03:29:35.483Z,3.20
2023-04-12T03:32:22.640Z,3.07
2023-04-12T03:35:11.647Z,2.77
2023-04-12T03:37:59.779Z,2.90
2023-04-12T03:40:45.255Z,2.80
2023-04-12T03:43:30.606Z,2.60
2023-04-12T03:46:15.802Z,3.23
2023-04-12T03:49:02.395Z,3.07
2023-04-12T03:51:48.214Z,2.90
2023-04-12T03:54:33.502Z,2.77
2023-04-12T03:57:23.357Z,2.90
2023-04-12T04:00:09.819Z,2.90
2023-04-12T04:03:16.952Z,2.87
2023-04-12T04:06:20.472Z,2.80
2023-04-12T04:09:05.846Z,2.47
2023-04-12T04:11:54.050Z,2.57
2023-04-12T04:14:40.490Z,2.70
2023-04-12T04:17:29.114Z,2.87
2023-04-12T04:20:14.809Z,2.73
2023-04-12T04:23:03.512Z,2.27
2023-04-12T04:25:49.384Z,2.67
2023-04-12T04:28:35.313Z,2.77
2023-04-12T04:31:21.154Z,2.73
2023-04-12T04:34:09.186Z,2.30
2023-04-12T04:36:59.993Z,2.67
2023-04-12T04:39:46.646Z,2.20
2023-04-12T04:42:32.407Z,2.50
2023-04-12T04:45:25.354Z,2.57
2023-04-12T04:48:10.907Z,2.53
2023-04-12T04:50:56.492Z,2.67
2023-04-12T04:53:42.023Z,2.47
2023-04-12T04:56:30.214Z,2.57
2023-04-12T04:59:15.836Z,2.30
2023-04-12T05:02:01.593Z,2.37
2023-04-12T05:04:46.900Z,2.10
2023-04-12T05:07:36.555Z,2.10
2023-04-12T05:10:23.156Z,2.03
2023-04-12T05:13:09.461Z,2.00
2023-04-12T05:15:55.209Z,2.03
2023-04-12T05:18:40.843Z,2.07
2023-04-12T05:21:26.227Z,1.83
2023-04-12T05:24:11.583Z,1.90
2023-04-12T05:26:58.204Z,1.90
2023-04-12T05:29:43.909Z,2.10
2023-04-12T05:32:29.451Z,1.60
2023-04-12T05:35:15.095Z,1.80
2023-04-12T05:38:02.216Z,1.60
2023-04-12T05:40:48.740Z,1.50
2023-04-12T05:43:35.673Z,1.73
2023-04-12T05:46:21.120Z,1.50
2023-04-12T05:49:09.166Z,1.60
2023-04-12T05:51:54.909Z,1.60
2023-04-12T05:54:40.922Z,1.50
2023-04-12T05:57:30.682Z,1.57
2023-04-12T06:00:17.063Z,1.60
2023-04-12T06:03:05.404Z,1.60
2023-04-12T06:05:51.282Z,1.70
2023-04-12T06:08:37.987Z,1.63
2023-04-12T06:11:23.989Z,1.87
2023-04-12T06:14:11.743Z,1.60
2023-04-12T06:16:57.256Z,1.70
2023-04-12T06:19:42.737Z,1.70
2023-04-12T06:22:28.969Z,1.77
2023-04-12T06:25:14.647Z,1.73
2023-04-12T06:28:00.217Z,1.70
2023-04-12T06:30:45.906Z,1.80
2023-04-12T06:33:30.825Z,1.70
2023-04-12T06:36:16.446Z,1.87
2023-04-12T06:39:02.077Z,1.97
2023-04-12T06:41:47.636Z,1.80
2023-04-12T06:44:37.700Z,1.37
2023-04-12T06:47:25.326Z,1.70
2023-04-12T06:50:11.111Z,1.57
2023-04-12T06:52:56.792Z,1.70
2023-04-12T06:55:42.506Z,1.93
2023-04-12T06:58:28.014Z,1.60
2023-04-12T07:01:13.573Z,1.80
2023-04-12T07:03:58.947Z,1.60
2023-04-12T07:06:44.371Z,2.00
2023-04-12T07:09:33.029Z,1.73
2023-04-12T07:12:18.386Z,1.50
2023-04-12T07:15:04.269Z,1.60
2023-04-12T07:17:49.951Z,1.60
2023-04-12T07:20:35.157Z,1.73
2023-04-12T07:23:20.507Z,1.73
2023-04-12T07:26:05.963Z,1.40
2023-04-12T07:28:51.803Z,1.47
2023-04-12T07:31:37.491Z,1.70
2023-04-12T07:34:23.318Z,1.50
2023-04-12T07:37:08.760Z,1.60
2023-04-12T07:39:54.280Z,1.20
2023-04-12T07:42:39.820Z,1.30
2023-04-12T07:45:25.352Z,1.50
2023-04-12T07:48:10.867Z,1.50
2023-04-12T07:50:56.294Z,1.60
2023-04-12T07:53:42.355Z,1.43
2023-04-12T07:56:27.430Z,1.50
2023-04-12T07:59:13.309Z,1.60
2023-04-12T08:01:58.560Z,1.60
2023-04-12T08:04:43.648Z,1.60
2023-04-12T08:07:28.834Z,1.30
2023-04-12T08:10:14.855Z,1.20
2023-04-12T08:13:00.045Z,1.60
2023-04-12T08:15:45.261Z,1.20
2023-04-12T08:18:30.601Z,1.10
2023-04-12T08:21:16.174Z,1.30
2023-04-12T08:24:01.451Z,1.40
2023-04-12T08:26:46.972Z,1.27
2023-04-12T08:29:32.363Z,1.30
2023-04-12T08:32:18.019Z,1.50
2023-04-12T08:35:05.115Z,1.30
2023-04-12T08:37:50.320Z,1.30
2023-04-12T08:40:35.936Z,1.00
2023-04-12T08:43:22.837Z,1.40
2023-04-12T08:46:08.859Z,1.33
2023-04-12T08:48:54.266Z,1.33
2023-04-12T08:51:41.820Z,1.23
2023-04-12T08:54:27.189Z,1.40
2023-04-12T08:57:13.683Z,1.07
2023-04-12T09:00:03.797Z,1.27
2023-04-12T09:02:49.479Z,1.30
2023-04-12T09:05:35.005Z,1.30
2023-04-12T09:08:20.299Z,1.23
2023-04-12T09:11:23.218Z,1.10
2023-04-12T09:14:22.836Z,1.13
2023-04-12T09:17:27.947Z,1.20
2023-04-12T09:20:16.107Z,1.00
2023-04-12T09:23:01.932Z,1.10
2023-04-12T09:25:47.608Z,1.17
2023-04-12T09:28:33.086Z,1.03
2023-04-12T09:31:18.546Z,1.10
2023-04-12T09:34:10.092Z,1.07
2023-04-12T09:36:56.332Z,1.00
2023-04-12T09:39:43.056Z,1.00
2023-04-12T09:42:34.005Z,0.80
2023-04-12T09:45:26.069Z,0.80
2023-04-12T09:48:20.544Z,1.10
2023-04-12T09:51:09.796Z,0.90
2023-04-12T09:54:04.311Z,0.90
2023-04-12T09:56:50.030Z,0.90
2023-04-12T09:59:38.634Z,0.90
2023-04-12T10:02:27.592Z,1.10
2023-04-12T10:05:15.473Z,1.10
2023-04-12T10:08:00.745Z,1.10
2023-04-12T10:10:48.630Z,0.90
2023-04-12T10:13:34.286Z,1.03
2023-04-12T10:16:22.058Z,0.90
2023-04-12T10:19:09.061Z,1.10
2023-04-12T10:21:54.576Z,1.00
2023-04-12T10:24:40.010Z,1.10
2023-04-12T10:27:26.242Z,1.10
2023-04-12T10:30:20.890Z,1.13
2023-04-12T10:33:06.346Z,1.23
2023-04-12T10:36:00.976Z,0.97
2023-04-12T10:38:47.382Z,1.17
2023-04-12T10:41:35.144Z,1.00
2023-04-12T10:44:24.864Z,1.00
2023-04-12T10:47:10.987Z,1.00
2023-04-12T10:50:25.708Z,0.93
2023-04-12T10:53:15.641Z,1.00
2023-04-12T10:56:01.205Z,0.97
2023-04-12T10:58:48.161Z,1.10
2023-04-12T11:01:36.744Z,1.07
2023-04-12T11:04:24.206Z,1.10
2023-04-12T11:07:39.328Z,0.97
2023-04-12T11:10:46.559Z,1.20
2023-04-12T11:13:38.931Z,0.90
2023-04-12T11:16:24.594Z,0.90
2023-04-12T11:19:10.826Z,1.03
2023-04-12T11:21:57.661Z,1.00
2023-04-12T11:24:45.421Z,1.00
2023-04-12T11:27:31.087Z,1.03
2023-04-12T11:30:16.310Z,1.00
2023-04-12T11:33:02.174Z,1.00
2023-04-12T11:35:48.089Z,0.80
2023-04-12T11:38:35.295Z,1.00
2023-04-12T11:41:20.762Z,0.80
2023-04-12T11:44:06.131Z,0.80
2023-04-12T11:46:51.686Z,0.90
2023-04-12T11:49:37.319Z,1.00
2023-04-12T11:52:28.419Z,1.00
2023-04-12T11:55:13.681Z,0.90
2023-04-12T11:57:59.832Z,0.70
2023-04-12T12:00:45.912Z,0.80
2023-04-12T12:03:31.701Z,0.80
2023-04-12T12:06:19.133Z,0.70
2023-04-12T12:09:04.421Z,0.70
2023-04-12T12:11:50.915Z,0.80
2023-04-12T12:14:36.109Z,0.80
2023-04-12T12:17:22.059Z,0.80
2023-04-12T12:20:18.939Z,0.87
2023-04-12T12:23:04.946Z,0.90
2023-04-12T12:25:50.245Z,0.80
2023-04-12T12:28:43.960Z,0.60
2023-04-12T12:31:29.283Z,0.70
2023-04-12T12:34:14.785Z,0.60
2023-04-12T12:37:00.318Z,0.80
2023-04-12T12:40:12.147Z,0.70
2023-04-12T12:42:57.287Z,0.73
2023-04-12T12:45:43.101Z,0.73
2023-04-12T12:48:28.628Z,0.50
2023-04-12T12:51:16.048Z,0.75
2023-04-12T12:54:01.626Z,0.60
2023-04-12T12:56:46.802Z,0.60
2023-04-12T12:59:32.070Z,0.68
2023-04-12T13:02:17.580Z,0.65
2023-04-12T13:05:04.793Z,0.60
2023-04-12T13:07:50.279Z,0.40
2023-04-12T13:10:35.590Z,0.50
2023-04-12T13:13:21.266Z,0.50
2023-04-12T13:16:07.320Z,0.60
2023-04-12T13:18:53.039Z,0.57
2023-04-12T13:21:38.360Z,0.70
2023-04-12T13:24:23.551Z,0.50
2023-04-12T13:27:09.368Z,0.60
2023-04-12T13:29:55.091Z,0.50
2023-04-12T13:32:40.242Z,0.53
2023-04-12T13:35:25.493Z,0.50
2023-04-12T13:38:10.984Z,0.50
2023-04-12T13:40:56.558Z,0.60
2023-04-12T13:43:42.147Z,0.63
2023-04-12T13:46:27.918Z,0.67
2023-04-12T13:49:13.273Z,0.50
2023-04-12T13:51:58.808Z,0.30
2023-04-12T13:54:44.464Z,0.50
2023-04-12T13:57:30.106Z,0.60
2023-04-12T14:00:18.839Z,0.50
2023-04-12T14:03:04.214Z,0.65
2023-04-12T14:05:49.663Z,0.60
2023-04-12T14:08:35.501Z,0.55
2023-04-12T14:11:23.321Z,0.55
2023-04-12T14:14:08.718Z,0.32
2023-04-12T14:16:55.663Z,0.75
2023-04-12T14:19:41.693Z,0.40
2023-04-12T14:22:26.806Z,0.50
2023-04-12T14:25:12.351Z,0.40
2023-04-12T14:27:57.498Z,0.30
2023-04-12T14:30:46.324Z,0.40
2023-04-12T14:33:31.807Z,0.50
2023-04-12T14:36:17.512Z,0.50
2023-04-12T14:39:04.010Z,0.32
2023-04-12T14:41:49.485Z,0.50
2023-04-12T14:44:34.953Z,0.40
2023-04-12T14:47:20.541Z,0.20
2023-04-12T14:50:07.089Z,0.30
2023-04-12T14:52:52.791Z,0.30
2023-04-12T14:55:38.155Z,0.40
2023-04-12T14:58:23.519Z,0.20
2023-04-12T15:01:11.438Z,0.40
2023-04-12T15:03:57.005Z,0.28
2023-04-12T15:06:42.999Z,0.30
2023-04-12T15:09:31.821Z,0.40
2023-04-12T15:12:17.112Z,0.40
2023-04-12T15:15:04.627Z,0.50
2023-04-12T15:17:51.411Z,0.32
2023-04-12T15:20:37.760Z,0.40
2023-04-12T15:23:23.231Z,0.50
2023-04-12T15:26:08.581Z,0.57
2023-04-12T15:28:53.885Z,0.50
2023-04-12T15:31:39.222Z,0.45
2023-04-12T15:34:24.830Z,0.57
2023-04-12T15:37:10.330Z,0.70
2023-04-12T15:39:55.804Z,0.90
2023-04-12T15:42:41.887Z,0.57
2023-04-12T15:45:27.407Z,0.40
2023-04-12T15:48:12.783Z,0.47
2023-04-12T15:50:58.154Z,0.50
2023-04-12T15:53:43.502Z,0.60
2023-04-12T15:56:28.948Z,0.60
2023-04-12T15:59:14.519Z,0.68
2023-04-12T16:01:59.722Z,0.80
2023-04-12T16:04:45.445Z,0.70
2023-04-12T16:07:30.848Z,0.70
2023-04-12T16:10:18.447Z,0.70
2023-04-12T16:13:03.861Z,0.85
2023-04-12T16:15:49.376Z,0.70
2023-04-12T16:18:34.597Z,0.90
2023-04-12T16:21:22.249Z,0.73
2023-04-12T16:24:07.768Z,0.70
2023-04-12T16:26:53.221Z,0.82
2023-04-12T16:29:38.447Z,1.00
2023-04-12T16:32:24.223Z,1.00
2023-04-12T16:35:09.683Z,0.80
2023-04-12T16:37:55.587Z,0.90
2023-04-12T16:40:41.008Z,0.90
2023-04-12T16:43:26.586Z,1.00
2023-04-12T16:46:12.140Z,1.25
2023-04-12T16:48:57.928Z,1.20
2023-04-12T16:51:43.648Z,0.85
2023-04-12T16:54:29.318Z,0.80
2023-04-12T16:57:14.741Z,0.90
2023-04-12T17:00:01.586Z,1.27
2023-04-12T17:02:52.585Z,1.30
2023-04-12T17:05:38.769Z,1.10
2023-04-12T17:08:24.099Z,1.10
2023-04-12T17:11:09.579Z,1.25
2023-04-12T17:13:55.171Z,1.05
2023-04-12T17:16:41.148Z,1.48
2023-04-12T17:19:26.816Z,0.70
2023-04-12T17:22:12.983Z,0.60
2023-04-12T17:24:58.808Z,0.70
2023-04-12T17:27:44.157Z,1.25
2023-04-12T17:30:30.167Z,1.08
2023-04-12T17:33:15.940Z,0.87
2023-04-12T17:36:01.673Z,0.90
2023-04-12T17:38:47.155Z,0.70
2023-04-12T17:41:32.858Z,0.60
2023-04-12T17:44:18.280Z,0.40
2023-04-12T17:47:03.887Z,0.80
2023-04-12T17:49:49.675Z,0.87
2023-04-12T17:52:34.664Z,0.80
2023-04-12T17:55:20.089Z,0.70
2023-04-12T17:58:05.687Z,0.40
2023-04-12T18:00:51.161Z,0.50
2023-04-12T18:03:36.908Z,0.60
2023-04-12T18:06:23.165Z,0.30
2023-04-12T18:09:12.305Z,0.50
2023-04-12T18:11:58.112Z,0.73
2023-04-12T18:14:43.741Z,1.10
2023-04-12T18:17:29.337Z,1.13
2023-04-12T18:20:14.790Z,1.20
2023-04-12T18:23:00.581Z,1.47
2023-04-12T18:25:45.782Z,1.10
2023-04-12T18:28:31.014Z,0.80
2023-04-12T18:31:16.509Z,0.70
2023-04-12T18:34:01.960Z,0.80
2023-04-12T18:36:47.602Z,0.80
2023-04-12T18:39:32.776Z,0.90
2023-04-12T18:42:18.190Z,0.80
2023-04-12T18:45:03.680Z,0.90
2023-04-12T18:47:50.837Z,0.87
2023-04-12T18:50:36.867Z,0.80
2023-04-12T18:53:22.284Z,0.80
2023-04-12T18:56:08.986Z,0.93
2023-04-12T18:58:56.317Z,0.90
2023-04-12T19:01:42.084Z,1.40
2023-04-12T19:04:27.581Z,3.50
2023-04-12T19:07:12.993Z,6.53
2023-04-12T19:09:58.781Z,4.83
2023-04-12T19:12:44.985Z,2.80
2023-04-12T19:15:30.596Z,3.40
2023-04-12T19:18:16.418Z,1.60
2023-04-12T19:21:02.573Z,1.30
2023-04-12T19:23:48.051Z,1.60
2023-04-12T19:26:33.360Z,1.40
2023-04-12T19:29:20.365Z,1.30
2023-04-12T19:32:05.614Z,1.10
2023-04-12T19:34:51.694Z,0.93
2023-04-12T19:37:36.777Z,1.00
2023-04-12T19:40:22.382Z,1.00
2023-04-12T19:43:08.147Z,1.10
2023-04-12T19:45:53.764Z,1.10
2023-04-12T19:48:39.412Z,1.33
2023-04-12T19:51:25.052Z,2.60
2023-04-12T19:54:10.304Z,3.20
2023-04-12T19:56:56.126Z,1.90
2023-04-12T19:59:41.240Z,1.20
2023-04-12T20:02:26.434Z,4.20
2023-04-12T20:05:12.177Z,4.07
2023-04-12T20:07:57.494Z,5.17
2023-04-12T20:10:42.806Z,5.63
2023-04-12T20:13:28.512Z,8.40
2023-04-12T20:16:13.903Z,5.40
2023-04-12T20:19:00.087Z,5.43
2023-04-12T20:21:45.877Z,4.07
2023-04-12T20:24:31.481Z,4.67
2023-04-12T20:27:16.989Z,5.93
2023-04-12T20:30:08.990Z,3.73
2023-04-12T20:32:54.802Z,1.00
2023-04-12T20:35:40.711Z,0.90
2023-04-12T20:38:25.922Z,0.90
2023-04-12T20:41:11.613Z,0.80
2023-04-12T20:43:56.809Z,0.90
2023-04-12T20:46:42.541Z,1.13
2023-04-12T20:49:28.362Z,1.20
2023-04-12T20:52:13.954Z,1.40
2023-04-12T20:54:59.631Z,1.33
2023-04-12T20:57:45.141Z,1.50
2023-04-12T21:00:30.900Z,1.70
2023-04-12T21:03:16.437Z,1.57
2023-04-12T21:06:02.670Z,1.30
2023-04-12T21:08:48.286Z,1.10
2023-04-12T21:11:33.689Z,1.40
2023-04-12T21:14:19.705Z,1.83
2023-04-12T21:17:05.269Z,2.10
2023-04-12T21:19:50.876Z,1.83
2023-04-12T21:22:36.185Z,1.53
2023-04-12T21:25:21.899Z,1.70
2023-04-12T21:28:07.474Z,1.67
2023-04-12T21:30:53.364Z,1.60
2023-04-12T21:33:38.565Z,1.30
2023-04-12T21:36:23.900Z,1.40
2023-04-12T21:39:09.415Z,1.60
2023-04-12T21:41:57.943Z,2.00
2023-04-12T21:44:43.431Z,1.90
2023-04-12T21:47:29.384Z,1.70
2023-04-12T21:50:14.888Z,1.70
2023-04-12T21:53:00.549Z,1.70
2023-04-12T21:55:46.080Z,1.60
2023-04-12T21:58:33.018Z,1.23
2023-04-12T22:01:19.974Z,1.70
2023-04-12T22:04:05.813Z,1.57
2023-04-12T22:06:51.557Z,1.60
2023-04-12T22:09:37.266Z,1.50
2023-04-12T22:12:22.996Z,1.47
2023-04-12T22:15:09.207Z,1.50
2023-04-12T22:17:54.832Z,1.90
2023-04-12T22:20:40.406Z,1.80
2023-04-12T22:23:25.541Z,1.63
2023-04-12T22:26:12.471Z,1.60
2023-04-12T22:28:58.093Z,1.73
2023-04-12T22:31:45.436Z,1.50
2023-04-12T22:34:31.485Z,1.60
2023-04-12T22:37:17.381Z,1.43
2023-04-12T22:40:02.758Z,1.53
2023-04-12T22:42:48.345Z,1.20
2023-04-12T22:45:33.632Z,1.40
2023-04-12T22:48:19.214Z,1.57
2023-04-12T22:51:05.077Z,1.50
2023-04-12T22:53:50.409Z,1.57
2023-04-12T22:56:39.419Z,1.47
2023-04-12T22:59:25.102Z,1.63
2023-04-12T23:02:10.434Z,1.37
2023-04-12T23:04:55.792Z,1.70
2023-04-12T23:07:41.242Z,2.00
2023-04-12T23:10:27.036Z,2.20
2023-04-12T23:13:12.269Z,2.30
2023-04-12T23:15:57.361Z,2.10
2023-04-12T23:18:42.979Z,2.40
2023-04-12T23:21:28.156Z,2.03
2023-04-12T23:24:13.270Z,2.50
2023-04-12T23:26:58.931Z,2.93
2023-04-12T23:29:44.719Z,2.50
2023-04-12T23:32:30.156Z,2.53
2023-04-12T23:35:16.565Z,2.47
2023-04-12T23:38:02.223Z,2.37
2023-04-12T23:40:47.702Z,2.70
2023-04-12T23:43:34.144Z,2.97
2023-04-12T23:46:21.490Z,2.70
2023-04-12T23:49:07.058Z,2.30
2023-04-12T23:51:52.695Z,2.23
2023-04-12T23:54:38.090Z,2.33
2023-04-12T23:57:23.451Z,2.37
